Time;durP1;ratioP1;P1;durP2;ratioP2;P2;SDS_P1;SDS_P2;PMS_P1;PMS_P2;Temp;Humidity;BMP_temperature;BMP_pressure;BME280_temperature;BME280_humidity;BME280_pressure;Samples;Min_cycle;Max_cycle;Signal;HPM_P1;HPM_P2
2023/08/16 00:00:53;;;;;;;12.00;10.30;;;;;;;24.02;82.83;100986.27;84083;284;137590;-62
2023/08/16 00:02:55;;;;;;;11.80;9.60;;;;;;;24.01;82.57;100986.10;84258;284;25206;-64
2023/08/16 00:04:58;;;;;;;9.60;8.80;;;;;;;24.02;82.73;100988.84;84163;281;137417;-59
2023/08/16 00:07:00;;;;;;;14.40;10.20;;;;;;;24.02;83.30;100992.91;84197;284;22591;-58
2023/08/16 00:09:02;;;;;;;11.00;10.10;;;;;;;24.00;83.28;100988.77;84172;284;138828;-59
2023/08/16 00:11:04;;;;;;;10.20;9.40;;;;;;;23.97;83.29;100992.33;84146;284;22647;-56
2023/08/16 00:13:06;;;;;;;10.90;9.80;;;;;;;23.95;83.44;100993.73;84112;284;137154;-55
2023/08/16 00:15:08;;;;;;;13.20;9.40;;;;;;;23.91;83.03;100995.73;84281;284;22681;-62
2023/08/16 00:17:10;;;;;;;10.70;9.70;;;;;;;23.88;83.18;100993.97;84197;283;136934;-59
2023/08/16 00:19:12;;;;;;;13.10;9.30;;;;;;;23.87;83.23;100992.27;84209;284;25246;-64
2023/08/16 00:21:15;;;;;;;13.70;10.20;;;;;;;23.85;83.95;100996.51;84211;284;137269;-62
2023/08/16 00:23:17;;;;;;;13.10;10.30;;;;;;;23.83;84.43;100996.10;84265;284;22550;-59
2023/08/16 00:25:20;;;;;;;13.20;11.60;;;;;;;23.78;84.81;100993.34;84106;284;137397;-58
2023/08/16 00:27:21;;;;;;;11.70;10.50;;;;;;;23.74;85.19;100995.08;84230;285;22748;-61
2023/08/16 00:29:23;;;;;;;13.90;10.50;;;;;;;23.69;85.64;100994.38;84007;285;137911;-60
2023/08/16 00:31:26;;;;;;;11.00;9.90;;;;;;;23.63;85.81;100995.42;84155;284;25018;-58
2023/08/16 00:33:28;;;;;;;12.30;11.00;;;;;;;23.56;86.12;100998.70;83902;284;137341;-60
2023/08/16 00:35:29;;;;;;;14.60;11.10;;;;;;;23.54;86.61;100996.21;84102;284;23498;-56
2023/08/16 00:37:31;;;;;;;12.00;10.80;;;;;;;23.50;87.01;100998.15;83930;284;137336;-59
2023/08/16 00:39:33;;;;;;;15.80;11.50;;;;;;;23.46;87.39;100997.78;84088;285;22862;-66
2023/08/16 00:41:35;;;;;;;12.20;10.30;;;;;;;23.44;87.93;100997.17;84040;284;138894;-60
2023/08/16 00:43:37;;;;;;;11.80;10.70;;;;;;;23.41;87.95;100997.95;84191;284;24102;-56
2023/08/16 00:45:39;;;;;;;12.90;11.60;;;;;;;23.37;88.36;101003.10;83988;285;137601;-58
2023/08/16 00:47:42;;;;;;;12.10;10.90;;;;;;;23.36;88.53;101006.89;84217;284;24760;-68
2023/08/16 00:49:44;;;;;;;14.10;12.70;;;;;;;23.36;88.76;101006.23;84023;284;137463;-60
2023/08/16 00:51:46;;;;;;;10.60;9.70;;;;;;;23.34;88.46;101008.94;84283;284;22543;-59
2023/08/16 00:53:49;;;;;;;15.00;11.00;;;;;;;23.31;88.47;101011.52;84085;284;137458;-59
2023/08/16 00:55:51;;;;;;;11.50;9.40;;;;;;;23.30;88.02;101007.37;84262;284;22557;-58
2023/08/16 00:57:54;;;;;;;11.90;10.70;;;;;;;23.29;87.58;101009.86;84016;284;138854;-60
2023/08/16 00:59:56;;;;;;;10.20;9.20;;;;;;;23.29;87.76;101011.06;84180;284;25144;-61
2023/08/16 01:01:58;;;;;;;10.70;9.70;;;;;;;23.29;87.86;101011.93;84137;284;138357;-61
2023/08/16 01:04:00;;;;;;;11.30;9.80;;;;;;;23.30;87.79;101011.77;84188;284;25772;-61
2023/08/16 01:06:03;;;;;;;10.50;9.60;;;;;;;23.28;87.85;101010.50;84196;284;138168;-59
2023/08/16 01:08:05;;;;;;;12.00;10.50;;;;;;;23.26;87.90;101016.91;83996;284;137713;-62
2023/08/16 01:10:08;;;;;;;11.30;10.30;;;;;;;23.24;88.13;101012.47;84100;285;22659;-60
2023/08/16 01:12:25;;;;;;;10.10;8.90;;;;;;;23.22;88.14;101010.99;84009;283;137851;-60
2023/08/16 01:14:52;;;;;;;10.30;9.50;;;;;;;23.19;88.76;101010.30;84222;284;22648;-60
2023/08/16 01:16:53;;;;;;;11.80;8.80;;;;;;;23.14;88.56;101007.69;84099;284;137766;-58
2023/08/16 01:18:57;;;;;;;11.30;9.50;;;;;;;23.09;88.55;101007.86;84214;285;25187;-58
2023/08/16 01:21:00;;;;;;;9.70;8.80;;;;;;;23.07;88.41;101007.95;84061;284;138767;-63
2023/08/16 01:23:06;;;;;;;13.80;10.20;;;;;;;23.08;89.54;101010.62;84262;284;25371;-56
2023/08/16 01:25:08;;;;;;;10.10;9.20;;;;;;;23.05;89.61;101011.02;84116;284;137886;-61
2023/08/16 01:27:18;;;;;;;10.70;9.60;;;;;;;23.03;89.44;101007.89;84224;284;22553;-66
2023/08/16 01:29:22;;;;;;;11.90;10.40;;;;;;;23.00;90.38;101008.77;84196;284;137312;-61
2023/08/16 01:31:25;;;;;;;10.50;9.70;;;;;;;22.98;91.05;101008.41;84193;284;25275;-60
2023/08/16 01:33:27;;;;;;;13.20;10.40;;;;;;;22.93;91.78;101009.46;84126;284;138294;-58
2023/08/16 01:35:30;;;;;;;10.90;9.80;;;;;;;22.90;91.77;101013.28;84119;284;22635;-60
2023/08/16 01:37:34;;;;;;;10.90;9.90;;;;;;;22.87;91.87;101013.20;84072;284;137207;-63
2023/08/16 01:39:38;;;;;;;9.80;8.80;;;;;;;22.87;91.89;101012.59;84089;284;25203;-65
2023/08/16 01:41:45;;;;;;;;;;;;;;;22.88;91.77;101011.47;84159;284;136879;-60
2023/08/16 01:43:48;;;;;;;9.50;8.80;;;;;;;22.89;91.73;101010.39;84321;284;25179;-60
2023/08/16 01:45:52;;;;;;;9.80;8.90;;;;;;;22.89;92.31;101011.75;84278;284;136855;-64
2023/08/16 01:47:57;;;;;;;11.10;10.00;;;;;;;22.88;92.58;101009.95;84344;273;25132;-61
2023/08/16 01:50:01;;;;;;;9.90;9.10;;;;;;;22.88;92.80;101007.98;84008;284;137314;-60
2023/08/16 01:52:04;;;;;;;11.20;10.20;;;;;;;22.89;92.99;101007.17;84025;274;137634;-63
2023/08/16 01:54:06;;;;;;;11.00;10.00;;;;;;;22.89;92.95;101007.02;84274;284;25256;-59
2023/08/16 01:56:08;;;;;;;13.70;9.70;;;;;;;22.88;93.02;101005.48;83919;285;137592;-59
2023/08/16 01:58:10;;;;;;;11.10;9.90;;;;;;;22.85;93.44;101002.84;83899;286;22565;-61
2023/08/16 02:00:13;;;;;;;11.70;10.70;;;;;;;22.83;93.60;101007.05;83992;284;137513;-61
2023/08/16 02:02:17;;;;;;;15.00;9.80;;;;;;;22.81;93.84;101007.61;84094;284;22564;-65
2023/08/16 02:04:19;;;;;;;10.00;9.10;;;;;;;22.79;94.09;101001.89;84060;284;138857;-64
2023/08/16 02:06:22;;;;;;;10.50;9.60;;;;;;;22.76;94.31;101003.83;84146;284;22646;-58
2023/08/16 02:08:24;;;;;;;12.80;10.40;;;;;;;22.73;94.48;101002.11;84101;284;138946;-63
2023/08/16 02:10:26;;;;;;;11.00;9.90;;;;;;;22.71;94.97;101005.60;84197;284;24101;-60
2023/08/16 02:12:27;;;;;;;11.00;10.00;;;;;;;22.69;95.15;101003.89;84049;284;137417;-64
2023/08/16 02:14:32;;;;;;;10.40;9.40;;;;;;;22.68;95.30;101004.55;84086;285;22573;-60
2023/08/16 02:16:34;;;;;;;11.10;9.90;;;;;;;22.66;95.60;101006.20;84028;284;137208;-62
2023/08/16 02:18:36;;;;;;;10.30;9.50;;;;;;;22.64;95.64;101007.05;84128;285;22649;-71
2023/08/16 02:20:39;;;;;;;13.00;9.40;;;;;;;22.62;95.99;101008.81;83860;285;138658;-61
2023/08/16 02:22:41;;;;;;;12.50;10.20;;;;;;;22.59;96.26;101010.50;84299;283;22657;-61
2023/08/16 02:24:44;;;;;;;11.30;9.90;;;;;;;22.56;96.59;101010.91;84199;285;137099;-60
2023/08/16 02:26:46;;;;;;;12.60;11.20;;;;;;;22.54;96.93;101011.27;84170;285;24395;-60
2023/08/16 02:28:49;;;;;;;13.60;10.60;;;;;;;22.51;97.28;101009.01;83972;284;137452;-61
2023/08/16 02:30:51;;;;;;;12.70;11.50;;;;;;;22.50;97.54;101013.29;84208;284;22814;-62
2023/08/16 02:32:54;;;;;;;13.80;11.00;;;;;;;22.49;97.84;101015.48;83938;281;138311;-60
2023/08/16 02:34:56;;;;;;;12.00;10.80;;;;;;;22.49;98.04;101014.83;84300;284;22562;-59
2023/08/16 02:36:58;;;;;;;11.30;10.10;;;;;;;22.49;97.69;101018.04;84224;272;137537;-60
2023/08/16 02:39:02;;;;;;;11.70;9.80;;;;;;;22.51;96.97;101019.15;84359;284;22699;-60
2023/08/16 02:41:04;;;;;;;11.40;10.20;;;;;;;22.56;96.87;101022.16;84178;284;138043;-60
2023/08/16 02:43:06;;;;;;;15.10;9.60;;;;;;;22.59;97.21;101018.49;84236;283;22550;-62
2023/08/16 02:45:08;;;;;;;10.80;9.70;;;;;;;22.57;97.56;101029.34;83993;284;138664;-58
2023/08/16 02:47:10;;;;;;;11.50;10.40;;;;;;;22.50;97.63;101027.18;83995;285;24134;-59
2023/08/16 02:49:12;;;;;;;10.80;9.70;;;;;;;22.45;97.61;101031.69;83933;284;138747;-59
2023/08/16 02:51:14;;;;;;;10.10;9.30;;;;;;;22.42;98.19;101029.14;83921;284;22582;-57
2023/08/16 02:53:16;;;;;;;11.90;10.00;;;;;;;22.36;98.48;101025.08;83940;284;137316;-58
2023/08/16 02:55:18;;;;;;;10.00;9.10;;;;;;;22.43;98.44;101035.02;84254;284;22546;-62
2023/08/16 02:57:22;;;;;;;10.70;9.80;;;;;;;22.46;98.46;101038.77;84104;284;138722;-60
2023/08/16 02:59:24;;;;;;;9.60;8.80;;;;;;;22.50;98.36;101040.98;84207;284;22671;-60
2023/08/16 03:01:26;;;;;;;10.00;9.20;;;;;;;22.53;98.44;101043.42;84104;284;136959;-59
2023/08/16 03:03:28;;;;;;;9.80;9.10;;;;;;;22.57;98.29;101043.85;84106;284;22652;-60
2023/08/16 03:05:31;;;;;;;11.00;9.30;;;;;;;22.60;98.15;101043.07;84067;284;137025;-62
2023/08/16 03:07:33;;;;;;;10.80;9.80;;;;;;;22.61;98.11;101041.36;84121;283;22586;-61
2023/08/16 03:09:36;;;;;;;10.20;9.20;;;;;;;22.64;98.14;101039.64;83953;284;137174;-58
2023/08/16 03:11:40;;;;;;;12.80;8.40;;;;;;;22.68;98.47;101040.04;84136;284;25182;-64
2023/08/16 03:13:42;;;;;;;10.30;9.30;;;;;;;22.75;98.49;101041.64;83950;284;138702;-60
2023/08/16 03:15:44;;;;;;;8.70;7.90;;;;;;;22.87;98.16;101041.89;84151;285;22567;-58
2023/08/16 03:17:46;;;;;;;9.80;8.90;;;;;;;23.01;97.32;101039.24;84098;284;138034;-56
2023/08/16 03:19:48;;;;;;;8.50;7.70;;;;;;;23.17;96.48;101037.44;84122;272;22543;-59
2023/08/16 03:21:51;;;;;;;9.60;8.60;;;;;;;23.33;95.67;101036.77;84105;282;137127;-66
2023/08/16 03:23:54;;;;;;;8.30;7.50;;;;;;;23.49;94.46;101036.23;84320;282;25411;-61
2023/08/16 03:25:56;;;;;;;9.00;8.30;;;;;;;23.62;93.64;101025.95;84176;283;137010;-59
2023/08/16 03:27:58;;;;;;;9.20;8.30;;;;;;;23.87;92.36;101036.73;84074;284;22582;-62
2023/08/16 03:30:02;;;;;;;9.10;8.30;;;;;;;23.98;91.16;101040.27;84084;285;137165;-60
2023/08/16 03:32:04;;;;;;;9.90;9.00;;;;;;;24.13;90.18;101048.27;84060;285;137318;-60
2023/08/16 03:36:15;;;;;;;11.00;9.50;;;;;;;24.10;89.50;101044.27;82905;306;546271;-60
2023/08/16 03:38:18;;;;;;;9.70;8.70;;;;;;;24.07;89.29;101043.86;83793;295;25915;-60
2023/08/16 03:40:20;;;;;;;11.10;9.50;;;;;;;24.02;89.26;101040.95;83624;295;135921;-59
2023/08/16 03:42:21;;;;;;;9.40;8.60;;;;;;;23.92;89.41;101040.70;83595;297;25150;-59
2023/08/16 03:44:23;;;;;;;9.60;8.90;;;;;;;23.87;90.10;101042.46;83638;296;136447;-60
2023/08/16 03:46:28;;;;;;;8.60;8.00;;;;;;;23.87;90.83;101041.00;83572;297;23091;-62
2023/08/16 03:48:33;;;;;;;9.70;8.20;;;;;;;23.91;90.93;101049.09;83741;292;136509;-62
2023/08/16 03:50:36;;;;;;;8.30;7.70;;;;;;;23.98;91.01;101053.38;83465;292;533177;-58
2023/08/16 03:52:37;;;;;;;9.70;7.80;;;;;;;24.12;90.62;101051.26;83777;290;136355;-59
2023/08/16 03:54:39;;;;;;;8.10;7.40;;;;;;;24.28;89.44;101050.16;83869;290;22833;-59
2023/08/16 03:56:41;;;;;;;9.10;7.60;;;;;;;24.42;88.69;101051.77;83805;289;136724;-60
2023/08/16 03:58:43;;;;;;;8.30;7.20;;;;;;;24.56;88.02;101052.09;83999;288;25229;-58
2023/08/16 04:00:50;;;;;;;8.80;7.70;;;;;;;24.63;87.45;101057.15;83861;289;138120;-59
2023/08/16 04:02:52;;;;;;;12.30;7.80;;;;;;;24.73;86.94;101059.91;84504;290;22570;-59
2023/08/16 04:04:55;;;;;;;7.90;7.20;;;;;;;24.91;86.59;101059.27;83715;289;136782;-55
2023/08/16 04:06:57;;;;;;;7.60;6.90;;;;;;;25.15;85.28;101061.33;83822;289;24166;-60
2023/08/16 04:08:59;;;;;;;8.30;7.30;;;;;;;25.24;83.79;101058.02;84111;288;136095;-59
2023/08/16 04:11:01;;;;;;;8.50;7.60;;;;;;;25.17;83.29;101062.22;83728;290;22814;-61
2023/08/16 04:13:04;;;;;;;7.40;6.90;;;;;;;24.96;83.64;101063.30;83579;289;136364;-61
2023/08/16 04:15:07;;;;;;;7.90;7.20;;;;;;;24.71;84.89;101062.30;83785;290;26351;-62
2023/08/16 04:17:09;;;;;;;8.40;7.70;;;;;;;24.49;86.37;101060.44;83586;289;138703;-61
2023/08/16 04:19:11;;;;;;;9.60;8.80;;;;;;;24.32;87.10;101064.95;83718;289;22599;-62
2023/08/16 04:21:16;;;;;;;7.50;6.80;;;;;;;24.15;88.46;101070.83;83561;289;136769;-59
2023/08/16 04:23:18;;;;;;;8.50;7.80;;;;;;;24.00;89.26;101070.02;83794;289;24103;-59
2023/08/16 04:25:21;;;;;;;8.10;7.50;;;;;;;23.90;90.28;101071.95;83707;289;136772;-68
2023/08/16 04:27:23;;;;;;;9.80;7.60;;;;;;;23.85;91.05;101072.28;83749;291;22733;-63
2023/08/16 04:29:26;;;;;;;8.60;7.90;;;;;;;23.81;91.70;101073.61;83618;290;136780;-59
2023/08/16 04:31:27;;;;;;;8.10;7.10;;;;;;;23.88;92.39;101073.02;83615;290;23257;-60
2023/08/16 04:33:31;;;;;;;8.30;7.60;;;;;;;24.07;92.19;101077.70;83697;290;137023;-60
2023/08/16 04:35:33;;;;;;;8.20;7.50;;;;;;;24.31;91.52;101076.93;83834;290;22551;-56
2023/08/16 04:37:34;;;;;;;8.70;7.10;;;;;;;24.49;89.66;101077.43;83853;288;138643;-60
2023/08/16 04:39:36;;;;;;;7.90;7.30;;;;;;;24.71;88.23;101081.55;84184;288;22605;-63
2023/08/16 04:41:38;;;;;;;6.70;6.30;;;;;;;24.99;86.44;101081.14;83834;288;136895;-69
2023/08/16 04:43:40;;;;;;;7.20;6.50;;;;;;;25.31;84.66;101079.41;83852;288;22571;-65
2023/08/16 04:45:42;;;;;;;7.20;6.50;;;;;;;25.64;83.27;101077.13;83759;287;137004;-59
2023/08/16 04:47:45;;;;;;;6.40;5.80;;;;;;;26.07;80.77;101080.00;83841;287;22655;-61
2023/08/16 04:49:47;;;;;;;6.20;5.60;;;;;;;26.42;78.24;101087.72;83802;287;137649;-60
2023/08/16 04:51:50;;;;;;;6.70;5.80;;;;;;;26.51;76.66;101091.46;83777;286;22797;-67
2023/08/16 04:53:52;;;;;;;6.50;5.90;;;;;;;26.54;76.25;101094.57;83770;286;135887;-70
2023/08/16 04:55:55;;;;;;;5.50;5.10;;;;;;;26.58;75.95;101099.66;83876;288;22607;-64
2023/08/16 04:57:56;;;;;;;7.20;5.90;;;;;;;26.58;75.46;101090.20;83885;284;135728;-62
2023/08/16 04:59:58;;;;;;;7.30;6.70;;;;;;;26.45;75.68;101090.16;83791;288;23779;-64
2023/08/16 05:02:00;;;;;;;9.20;7.10;;;;;;;26.24;76.54;101089.17;83720;287;135660;-58
2023/08/16 05:04:06;;;;;;;6.30;5.60;;;;;;;25.97;77.45;101087.60;83875;286;137363;-61
2023/08/16 05:06:09;;;;;;;6.90;6.30;;;;;;;25.81;78.43;101086.04;83791;289;22726;-60
2023/08/16 05:08:10;;;;;;;7.50;6.80;;;;;;;25.75;79.31;101087.62;83606;289;136237;-65
2023/08/16 05:10:14;;;;;;;6.70;6.30;;;;;;;25.72;79.46;101090.24;86630;288;22467;-62
2023/08/16 05:12:16;;;;;;;6.50;5.80;;;;;;;25.69;79.86;101088.76;84879;288;136730;-59
2023/08/16 05:14:19;;;;;;;7.00;5.50;;;;;;;25.66;80.41;101086.03;83882;287;22551;-68
2023/08/16 05:16:21;;;;;;;7.60;6.80;;;;;;;25.65;80.87;101087.17;83814;287;136779;-63
2023/08/16 05:18:25;;;;;;;6.70;5.90;;;;;;;25.65;80.88;101089.15;83894;287;24164;-61
2023/08/16 05:20:28;;;;;;;6.70;6.00;;;;;;;25.68;81.28;101090.77;83952;287;138226;-60
2023/08/16 05:22:30;;;;;;;8.90;7.10;;;;;;;25.73;81.49;101093.95;83932;287;25241;-60
2023/08/16 05:24:32;;;;;;;7.60;6.30;;;;;;;25.78;81.20;101093.41;83928;287;138179;-61
2023/08/16 05:26:33;;;;;;;6.80;6.20;;;;;;;25.96;81.12;101093.70;83965;288;22574;-60
2023/08/16 05:28:35;;;;;;;8.80;7.00;;;;;;;26.16;80.66;101094.48;83793;287;136073;-62
2023/08/16 05:30:37;;;;;;;7.70;7.00;;;;;;;26.30;78.81;101088.02;84339;287;24105;-62
2023/08/16 05:32:39;;;;;;;12.60;7.50;;;;;;;26.45;77.92;101091.55;83983;286;135818;-60
2023/08/16 05:34:41;;;;;;;8.30;6.70;;;;;;;26.47;77.64;101093.28;83933;286;22573;-60
2023/08/16 05:36:48;;;;;;;7.60;6.80;;;;;;;26.52;77.57;101095.84;83900;287;136007;-62
2023/08/16 05:38:50;;;;;;;9.90;7.00;;;;;;;26.64;76.93;101098.52;84002;287;22554;-61
2023/08/16 05:40:51;;;;;;;9.50;7.20;;;;;;;26.74;76.21;101097.17;83887;287;136097;-61
2023/08/16 05:42:54;;;;;;;9.60;7.60;;;;;;;26.82;75.63;101095.40;84069;287;25193;-63
2023/08/16 05:44:56;;;;;;;8.60;7.60;;;;;;;26.90;75.85;101095.53;84101;282;137152;-60
2023/08/16 05:46:59;;;;;;;7.00;6.30;;;;;;;27.03;75.15;101092.69;84324;282;22559;-63
2023/08/16 05:49:01;;;;;;;7.10;6.30;;;;;;;27.16;74.57;101095.14;84208;282;135761;-61
2023/08/16 05:51:03;;;;;;;9.40;6.90;;;;;;;27.27;73.25;101092.04;84243;282;22563;-61
2023/08/16 05:53:05;;;;;;;6.70;6.00;;;;;;;27.34;72.28;101094.75;84046;282;136168;-61
2023/08/16 05:55:07;;;;;;;12.60;6.30;;;;;;;27.45;71.78;101093.16;84321;282;23740;-61
2023/08/16 05:57:09;;;;;;;5.90;5.40;;;;;;;27.70;72.11;101094.84;84128;282;136258;-62
2023/08/16 05:59:11;;;;;;;7.60;5.80;;;;;;;28.06;70.09;101094.64;84173;282;25132;-58
2023/08/16 06:01:13;;;;;;;8.10;5.90;;;;;;;28.43;68.87;101091.11;84146;281;135894;-62
2023/08/16 06:03:14;;;;;;;7.40;5.70;;;;;;;28.81;66.93;101091.65;84190;283;24454;-62
2023/08/16 06:05:16;;;;;;;10.70;6.00;;;;;;;29.17;65.91;101094.44;84007;282;137282;-60
2023/08/16 06:07:19;;;;;;;12.60;6.00;;;;;;;29.56;63.99;101092.14;84114;282;22561;-62
2023/08/16 06:09:21;;;;;;;6.20;5.60;;;;;;;29.93;62.44;101088.48;83949;282;136232;-61
2023/08/16 06:11:23;;;;;;;5.90;5.40;;;;;;;30.33;59.99;101090.90;84071;282;24352;-65
2023/08/16 06:13:25;;;;;;;6.00;5.10;;;;;;;30.58;58.63;101088.81;84059;281;136365;-67
2023/08/16 06:15:27;;;;;;;5.30;4.60;;;;;;;30.79;57.89;101090.81;84033;283;22588;-57
2023/08/16 06:17:28;;;;;;;4.80;4.40;;;;;;;31.07;56.64;101092.86;84035;283;136737;-60
2023/08/16 06:19:31;;;;;;;4.20;3.90;;;;;;;31.32;56.08;101089.99;84188;283;22546;-65
2023/08/16 06:21:33;;;;;;;7.30;4.50;;;;;;;31.57;54.86;101091.97;84214;281;135982;-64
2023/08/16 06:23:35;;;;;;;4.10;3.90;;;;;;;31.71;54.70;101090.48;84363;282;25400;-63
2023/08/16 06:25:37;;;;;;;4.70;4.40;;;;;;;31.85;53.49;101089.41;84279;281;136210;-60
2023/08/16 06:27:40;;;;;;;4.50;4.30;;;;;;;31.99;52.75;101082.58;84168;283;22949;-63
2023/08/16 06:29:41;;;;;;;5.40;4.30;;;;;;;32.13;52.98;101082.16;84056;282;137533;-63
2023/08/16 06:31:43;;;;;;;6.10;4.60;;;;;;;32.26;52.43;101079.40;84261;282;24692;-64
2023/08/16 06:33:45;;;;;;;6.40;4.10;;;;;;;32.38;52.28;101076.86;84206;282;136177;-61
2023/08/16 06:35:47;;;;;;;5.10;4.70;;;;;;;32.52;51.81;101078.62;84237;283;22550;-65
2023/08/16 06:37:49;;;;;;;4.80;4.20;;;;;;;32.63;52.19;101078.73;84172;282;136244;-63
2023/08/16 06:39:50;;;;;;;5.80;5.30;;;;;;;32.73;51.32;101073.69;84228;282;22553;-57
2023/08/16 06:41:53;;;;;;;4.80;4.40;;;;;;;32.78;50.65;101074.22;84348;271;136178;-56
2023/08/16 06:43:55;;;;;;;4.20;3.90;;;;;;;32.79;50.93;101072.08;84442;281;22720;-61
2023/08/16 06:45:57;;;;;;;5.00;4.50;;;;;;;32.85;51.16;101073.92;84208;282;137111;-74
2023/08/16 06:47:59;;;;;;;7.30;5.90;;;;;;;32.85;50.62;101070.44;84222;283;24246;-62
2023/08/16 06:50:04;;;;;;;3.60;3.30;;;;;;;32.84;50.25;101067.16;84492;281;136006;-63
2023/08/16 06:52:06;;;;;;;3.80;3.40;;;;;;;32.84;49.85;101068.98;84499;281;138415;-60
2023/08/16 06:54:08;;;;;;;3.40;3.20;;;;;;;32.76;49.83;101057.89;84177;284;24114;-62
2023/08/16 06:56:10;;;;;;;3.80;3.50;;;;;;;32.82;49.94;101070.34;84030;283;136413;-70
2023/08/16 06:58:12;;;;;;;3.10;2.90;;;;;;;32.86;49.67;101070.41;84232;283;23304;-69
2023/08/16 07:00:17;;;;;;;4.10;3.30;;;;;;;32.91;48.99;101069.20;84087;283;136601;-63
2023/08/16 07:02:20;;;;;;;6.30;3.50;;;;;;;32.94;48.64;101070.27;84322;282;22547;-67
2023/08/16 07:04:23;;;;;;;3.40;3.10;;;;;;;32.95;48.76;101069.14;84194;281;136438;-63
2023/08/16 07:06:26;;;;;;;2.90;2.80;;;;;;;32.95;48.62;101071.66;84257;281;25229;-75
2023/08/16 07:08:28;;;;;;;3.00;2.50;;;;;;;32.97;48.37;101073.52;84214;281;136380;-64
2023/08/16 07:10:30;;;;;;;2.80;2.70;;;;;;;33.00;47.82;101067.31;84153;282;25286;-61
2023/08/16 07:12:31;;;;;;;2.60;2.50;;;;;;;33.02;48.10;101065.27;84041;282;136386;-64
2023/08/16 07:14:33;;;;;;;4.40;3.20;;;;;;;33.05;47.86;101063.26;84108;283;24227;-62
2023/08/16 07:16:36;;;;;;;2.20;2.10;;;;;;;33.02;47.79;101065.17;84036;283;137835;-67
2023/08/16 07:18:38;;;;;;;2.80;2.60;;;;;;;32.87;47.51;101063.40;84732;283;22550;-65
2023/08/16 07:20:40;;;;;;;3.10;2.70;;;;;;;32.68;47.72;101063.06;84017;282;137583;-63
2023/08/16 07:22:42;;;;;;;3.50;2.40;;;;;;;32.52;47.86;101066.34;84124;283;23050;-61
2023/08/16 07:24:44;;;;;;;2.50;1.90;;;;;;;32.34;48.02;101064.19;84025;282;136508;-63
2023/08/16 07:26:45;;;;;;;1.80;1.70;;;;;;;32.14;47.62;101061.30;84155;283;24955;-60
2023/08/16 07:28:48;;;;;;;3.40;1.60;;;;;;;31.91;47.94;101059.27;84016;283;136013;-60
2023/08/16 07:30:53;;;;;;;1.70;1.70;;;;;;;31.75;48.78;101062.49;84051;282;24254;-66
2023/08/16 07:32:55;;;;;;;2.50;2.00;;;;;;;31.63;49.64;101060.08;84166;282;138060;-60
2023/08/16 07:34:57;;;;;;;5.20;1.70;;;;;;;31.56;50.40;101058.81;84077;281;25256;-70
2023/08/16 07:36:59;;;;;;;2.50;2.30;;;;;;;31.46;50.16;101061.05;83991;281;137375;-64
2023/08/16 07:39:01;;;;;;;4.00;2.50;;;;;;;31.33;50.61;101059.80;84490;283;24102;-60
2023/08/16 07:41:03;;;;;;;4.50;2.50;;;;;;;31.21;50.13;101058.84;84018;283;136544;-60
2023/08/16 07:43:05;;;;;;;2.10;1.80;;;;;;;31.11;50.03;101054.90;84085;283;23341;-64
2023/08/16 07:45:07;;;;;;;1.70;1.60;;;;;;;31.01;50.61;101052.90;84035;282;136375;-61
2023/08/16 07:47:11;;;;;;;3.00;2.00;;;;;;;30.91;50.27;101052.95;84212;282;25133;-60
2023/08/16 07:49:13;;;;;;;2.00;1.80;;;;;;;30.79;50.68;101059.34;84165;282;136434;-63
2023/08/16 07:51:15;;;;;;;3.50;1.50;;;;;;;30.71;50.55;101056.38;84218;283;23875;-64
2023/08/16 07:53:17;;;;;;;1.90;1.80;;;;;;;30.65;50.56;101054.73;84093;254;136292;-67
2023/08/16 07:55:22;;;;;;;1.10;1.10;;;;;;;30.55;50.41;101054.95;84136;283;22582;-60
2023/08/16 07:57:24;;;;;;;1.70;1.60;;;;;;;30.42;50.89;101058.15;84079;283;136501;-67
2023/08/16 07:59:26;;;;;;;1.60;1.50;;;;;;;30.33;50.91;101052.84;84092;282;24072;-61
2023/08/16 08:01:28;;;;;;;1.40;1.30;;;;;;;30.30;51.02;101053.64;84132;282;136610;-61
2023/08/16 08:03:30;;;;;;;1.20;1.20;;;;;;;30.27;50.70;101057.58;84529;283;25176;-61
2023/08/16 08:05:32;;;;;;;1.30;1.30;;;;;;;30.22;50.69;101054.21;84135;281;137250;-64
2023/08/16 08:07:33;;;;;;;1.50;1.40;;;;;;;30.20;50.80;101056.38;84322;281;24203;-62
2023/08/16 08:09:35;;;;;;;1.50;1.40;;;;;;;30.22;50.63;101051.30;84074;284;135981;-62
2023/08/16 08:11:37;;;;;;;1.60;1.60;;;;;;;30.25;50.61;101050.70;84047;283;24214;-59
2023/08/16 08:13:39;;;;;;;1.80;1.30;;;;;;;30.32;50.47;101045.85;84133;282;136232;-58
2023/08/16 08:15:41;;;;;;;2.60;1.40;;;;;;;30.40;50.39;101045.06;84150;282;22657;-59
2023/08/16 08:17:42;;;;;;;1.60;1.50;;;;;;;30.41;50.65;101043.65;83924;282;137859;-65
2023/08/16 08:19:45;;;;;;;2.90;1.40;;;;;;;30.39;50.77;101046.29;84364;282;22548;-64
2023/08/16 08:21:47;;;;;;;2.30;1.80;;;;;;;30.34;51.06;101043.36;84046;283;136426;-58
2023/08/16 08:23:49;;;;;;;3.70;2.00;;;;;;;30.34;50.83;101046.20;84200;282;24225;-68
2023/08/16 08:25:51;;;;;;;3.00;1.90;;;;;;;30.38;50.69;101042.01;84114;283;137676;-62
2023/08/16 08:27:54;;;;;;;3.50;1.40;;;;;;;30.40;50.56;101042.36;84133;282;22882;-58
2023/08/16 08:29:56;;;;;;;3.00;2.00;;;;;;;30.42;50.56;101042.20;84151;282;137951;-61
2023/08/16 08:31:58;;;;;;;5.10;1.90;;;;;;;30.45;50.63;101035.13;83973;282;22550;-62
2023/08/16 08:34:00;;;;;;;2.20;2.10;;;;;;;30.42;51.13;101039.08;84142;282;136090;-62
2023/08/16 08:36:03;;;;;;;1.90;1.80;;;;;;;30.39;51.15;101046.18;84143;283;24100;-63
2023/08/16 08:38:05;;;;;;;4.20;2.10;;;;;;;30.36;51.41;101040.09;84469;283;22564;-58
2023/08/16 08:40:07;;;;;;;2.10;2.00;;;;;;;30.29;51.36;101038.73;84048;282;137718;-65
2023/08/16 08:42:09;;;;;;;2.00;1.90;;;;;;;30.24;51.56;101031.59;84303;281;22677;-71
2023/08/16 08:44:11;;;;;;;4.10;2.60;;;;;;;30.23;51.93;101029.03;84094;281;136433;-62
2023/08/16 08:46:13;;;;;;;3.20;2.20;;;;;;;30.29;51.82;101031.01;84011;283;25190;-62
2023/08/16 08:48:16;;;;;;;2.70;2.40;;;;;;;30.37;51.43;101037.80;84098;283;136490;-60
2023/08/16 08:50:18;;;;;;;2.80;2.40;;;;;;;30.46;50.32;101033.11;84437;281;22545;-61
2023/08/16 08:52:21;;;;;;;3.60;2.50;;;;;;;30.53;50.00;101031.48;83983;282;137127;-62
2023/08/16 08:54:23;;;;;;;5.10;2.40;;;;;;;30.59;49.76;101033.39;84258;282;22748;-62
2023/08/16 08:56:27;;;;;;;4.90;2.30;;;;;;;30.60;49.50;101032.21;84034;282;136492;-61
2023/08/16 08:58:33;;;;;;;7.10;1.80;;;;;;;30.55;49.50;101021.98;84215;282;22566;-61
2023/08/16 09:00:37;;;;;;;3.10;2.20;;;;;;;30.57;49.90;101031.38;84081;282;136611;-61
2023/08/16 09:02:40;;;;;;;4.10;1.40;;;;;;;30.50;50.21;101030.39;84145;284;25196;-69
2023/08/16 09:04:43;;;;;;;1.70;1.70;;;;;;;30.43;49.91;101021.61;84147;283;136182;-59
2023/08/16 09:06:46;;;;;;;2.40;2.10;;;;;;;30.39;50.33;101018.34;84295;282;25130;-61
2023/08/16 09:08:49;;;;;;;3.00;2.10;;;;;;;30.42;50.35;101023.47;84143;282;136239;-69
2023/08/16 09:10:51;;;;;;;3.70;2.50;;;;;;;30.52;50.08;101023.70;84226;282;25158;-62
2023/08/16 09:12:53;;;;;;;2.90;2.10;;;;;;;30.64;49.30;101019.30;84176;282;136289;-74
2023/08/16 09:14:55;;;;;;;2.00;1.60;;;;;;;30.74;48.88;101021.70;84214;282;25341;-60
2023/08/16 09:16:57;;;;;;;2.70;1.70;;;;;;;30.80;47.97;101020.90;84110;282;139501;-64
2023/08/16 09:18:59;;;;;;;4.60;1.70;;;;;;;30.77;47.67;101017.60;84223;282;25179;-60
2023/08/16 09:21:01;;;;;;;2.80;1.70;;;;;;;30.75;47.73;101017.61;84061;282;136606;-60
2023/08/16 09:23:03;;;;;;;3.80;2.00;;;;;;;30.79;47.59;101011.73;84131;283;24257;-68
2023/08/16 09:25:10;;;;;;;9.50;1.50;;;;;;;30.87;47.86;101010.58;84041;283;136517;-62
2023/08/16 09:27:12;;;;;;;6.60;1.80;;;;;;;30.97;48.24;101006.16;84525;282;25296;-62
2023/08/16 09:29:13;;;;;;;1.80;1.70;;;;;;;31.06;48.22;101006.98;83963;279;136537;-65
2023/08/16 09:31:16;;;;;;;2.10;1.90;;;;;;;31.12;47.17;101012.67;84018;283;22565;-57
2023/08/16 09:33:19;;;;;;;1.60;1.50;;;;;;;31.10;46.83;101010.65;84163;282;136305;-63